Bennington, Idaho
Current Conditions -  °F | °C
As of 2:35 PM on Friday 24 Oct 2014 (Local Time) from KAFO Reporting Station
Clear Clear  
Wind Chill: 64°   Ceiling: Unl
Heat Index: 64°   Visibility: 10mi
Dew Point: 28°   Wind: 10mph
Humidity: 26%   Direction: 220°SW
Pressure: 30.2"   Gusts: 16mph
Location:  42.3329°N, 111.271°W
Report Text: KAFO 242035Z AUTO 22009G14KT 10SM CLR 18/M02 A3020 RMK AO2
Loading
Personal Weather Stations






























Interactive Weather Map
Tropical Storm Tracking
New forecast layout! Learn more

10-Day Weather Forecast

Advertisements
Track Severe Weather on mobile